createdAt,value
2018-09-19T00:01:28.056Z,101080.00
2018-09-19T00:07:31.948Z,101079.00
2018-09-19T00:13:35.570Z,101079.00
2018-09-19T00:19:38.955Z,101077.00
2018-09-19T00:25:42.931Z,101073.00
2018-09-19T00:31:46.340Z,101078.00
2018-09-19T00:37:49.771Z,101083.00
2018-09-19T00:43:53.241Z,101087.00
2018-09-19T00:49:56.633Z,101089.00
2018-09-19T00:56:00.705Z,101091.00
2018-09-19T01:02:04.818Z,101087.00
2018-09-19T01:08:08.412Z,101089.00
2018-09-19T01:14:11.993Z,101080.00
2018-09-19T01:20:15.766Z,101090.00
2018-09-19T01:26:19.146Z,100987.00
2018-09-19T01:32:22.546Z,101100.00
2018-09-19T01:38:25.920Z,101100.00
2018-09-19T01:44:29.455Z,101103.00
2018-09-19T01:50:32.882Z,101099.00
2018-09-19T01:56:36.365Z,101115.00
2018-09-19T02:02:39.872Z,101104.00
2018-09-19T02:08:43.961Z,101105.00
2018-09-19T02:14:47.484Z,101107.00
2018-09-19T02:20:50.841Z,101103.00
2018-09-19T02:26:54.227Z,101100.00
2018-09-19T02:32:57.745Z,101118.00
2018-09-19T02:39:01.766Z,101106.00
2018-09-19T02:45:05.272Z,101104.00
2018-09-19T02:51:08.923Z,101090.00
2018-09-19T02:57:12.307Z,101095.00
2018-09-19T03:03:15.760Z,101092.00
2018-09-19T03:09:19.905Z,101101.00
2018-09-19T03:15:23.815Z,101095.00
2018-09-19T03:21:27.332Z,101092.00
2018-09-19T03:27:32.070Z,101040.00
2018-09-19T03:33:35.667Z,101100.00
2018-09-19T03:39:39.736Z,101104.00
2018-09-19T03:45:43.780Z,101099.00
2018-09-19T03:51:47.221Z,101108.00
2018-09-19T03:57:50.600Z,101108.00
2018-09-19T04:03:54.031Z,101108.00
2018-09-19T04:09:57.436Z,101111.00
2018-09-19T04:16:00.892Z,101109.00
2018-09-19T04:22:05.085Z,101114.00
2018-09-19T04:28:13.132Z,101120.00
2018-09-19T04:34:21.089Z,101123.00
2018-09-19T04:40:24.502Z,101119.00
2018-09-19T04:46:27.977Z,101119.00
2018-09-19T04:52:33.670Z,101114.00
2018-09-19T04:58:37.219Z,101114.00
2018-09-19T05:04:41.072Z,101109.00
2018-09-19T05:10:44.811Z,101109.00
2018-09-19T05:16:49.262Z,101102.00
2018-09-19T05:22:53.516Z,101104.00
2018-09-19T05:28:57.040Z,101107.00
2018-09-19T05:35:00.629Z,101109.00
2018-09-19T05:41:05.005Z,101102.00
2018-09-19T05:47:08.640Z,101108.00
2018-09-19T05:53:12.201Z,101110.00
2018-09-19T05:59:15.771Z,101096.00
2018-09-19T06:05:19.138Z,101084.00
2018-09-19T06:11:22.644Z,101085.00
2018-09-19T06:17:26.125Z,101090.00
2018-09-19T06:23:29.533Z,101083.00
2018-09-19T06:29:32.990Z,101083.00
2018-09-19T06:35:36.436Z,101079.00
2018-09-19T06:41:44.513Z,101072.00
2018-09-19T06:47:47.949Z,101067.00
2018-09-19T06:53:51.899Z,101045.00
2018-09-19T06:59:55.651Z,101054.00
2018-09-19T07:05:59.305Z,101050.00
2018-09-19T07:12:02.841Z,101061.00
2018-09-19T07:18:07.148Z,101064.00
2018-09-19T07:24:10.682Z,101069.00
2018-09-19T07:30:14.242Z,101081.00
2018-09-19T07:36:17.789Z,101093.00
2018-09-19T07:42:22.512Z,101090.00
2018-09-19T07:48:25.997Z,101092.00
2018-09-19T07:54:29.684Z,101082.00
2018-09-19T08:00:33.693Z,101087.00
2018-09-19T08:06:37.370Z,101095.00
2018-09-19T08:12:40.961Z,101102.00
2018-09-19T08:18:49.360Z,101104.00
2018-09-19T08:24:52.785Z,101105.00
2018-09-19T08:30:56.224Z,101103.00
2018-09-19T08:36:59.691Z,101091.00
2018-09-19T08:43:03.355Z,101079.00
2018-09-19T08:49:06.856Z,101094.00
2018-09-19T08:55:10.303Z,101076.00
2018-09-19T09:01:13.833Z,101073.00
2018-09-19T09:07:17.896Z,101089.00
2018-09-19T09:13:21.779Z,101076.00
2018-09-19T09:19:25.233Z,101077.00
2018-09-19T09:25:28.680Z,101074.00
2018-09-19T09:31:32.103Z,101086.00
2018-09-19T09:37:35.531Z,101072.00
2018-09-19T09:43:39.039Z,101059.00
2018-09-19T09:49:43.189Z,101061.00
2018-09-19T09:55:46.616Z,101058.00
2018-09-19T10:01:51.341Z,101058.00
2018-09-19T10:07:54.795Z,101050.00
2018-09-19T10:13:58.311Z,101051.00
2018-09-19T10:20:01.732Z,101047.00
2018-09-19T10:26:05.351Z,101049.00
2018-09-19T10:32:09.082Z,101051.00
2018-09-19T10:38:13.294Z,101033.00
2018-09-19T10:44:16.883Z,101024.00
2018-09-19T10:50:21.539Z,101032.00
2018-09-19T10:56:25.217Z,101027.00
2018-09-19T11:02:28.606Z,101026.00
2018-09-19T11:08:32.001Z,101022.00
2018-09-19T11:14:35.600Z,101023.00
2018-09-19T11:20:39.053Z,101015.00
2018-09-19T11:26:42.489Z,101025.00
2018-09-19T11:32:45.960Z,101018.00
2018-09-19T11:38:49.399Z,101023.00
2018-09-19T11:44:52.868Z,101028.00
2018-09-19T11:50:56.249Z,101022.00
2018-09-19T11:57:00.410Z,101028.00
2018-09-19T12:03:04.028Z,101013.00
2018-09-19T12:09:12.148Z,101027.00
2018-09-19T12:15:15.648Z,101018.00
2018-09-19T12:21:19.184Z,101014.00
2018-09-19T12:27:22.608Z,101006.00
2018-09-19T12:33:26.112Z,101008.00
2018-09-19T12:39:29.595Z,100998.00
2018-09-19T12:45:32.965Z,100993.00
2018-09-19T12:51:36.547Z,100985.00
2018-09-19T12:57:39.936Z,100992.00
2018-09-19T13:03:44.122Z,100991.00
2018-09-19T13:09:47.539Z,100979.00
2018-09-19T13:15:50.975Z,100991.00
2018-09-19T13:21:54.391Z,100983.00
2018-09-19T13:27:57.816Z,100975.00
2018-09-19T13:34:01.713Z,100975.00
2018-09-19T13:40:05.533Z,100970.00
2018-09-19T13:46:10.086Z,100963.00
2018-09-19T13:52:13.792Z,100967.00
2018-09-19T13:58:17.252Z,100938.00
2018-09-19T14:04:20.845Z,100947.00
2018-09-19T14:10:24.807Z,100946.00
2018-09-19T14:16:28.313Z,100948.00
2018-09-19T14:22:33.285Z,100935.00
2018-09-19T14:28:36.701Z,100957.00
2018-09-19T14:34:40.253Z,100931.00
2018-09-19T14:40:43.816Z,100940.00
2018-09-19T14:46:48.011Z,100942.00
2018-09-19T14:52:52.079Z,100945.00
2018-09-19T14:58:55.668Z,100933.00
2018-09-19T15:04:59.531Z,100936.00
2018-09-19T15:11:03.016Z,100925.00
2018-09-19T15:17:06.653Z,100938.00
2018-09-19T15:23:10.209Z,100947.00
2018-09-19T15:29:13.682Z,100945.00
2018-09-19T15:35:17.131Z,100943.00
2018-09-19T15:41:20.607Z,100952.00
2018-09-19T15:47:23.964Z,100955.00
2018-09-19T15:53:30.696Z,100956.00
2018-09-19T15:59:34.139Z,100967.00
2018-09-19T16:05:37.618Z,100964.00
2018-09-19T16:11:41.189Z,100962.00
2018-09-19T16:17:44.654Z,100973.00
2018-09-19T16:23:48.426Z,100982.00
2018-09-19T16:29:51.937Z,100980.00
2018-09-19T16:35:56.255Z,100988.00
2018-09-19T16:42:00.922Z,100986.00
2018-09-19T16:48:09.025Z,100985.00
2018-09-19T16:54:12.548Z,100991.00
2018-09-19T17:00:16.302Z,101004.00
2018-09-19T17:06:19.797Z,101012.00
2018-09-19T17:12:23.489Z,101007.00
2018-09-19T17:18:26.936Z,101012.00
2018-09-19T17:24:30.356Z,101021.00
2018-09-19T17:30:33.856Z,101038.00
2018-09-19T17:36:37.244Z,101038.00
2018-09-19T17:42:40.749Z,101048.00
2018-09-19T17:48:45.198Z,101054.00
2018-09-19T17:54:48.771Z,101060.00
2018-09-19T18:00:52.843Z,101064.00
2018-09-19T18:06:57.198Z,101078.00
2018-09-19T18:13:00.709Z,101082.00
2018-09-19T18:19:04.752Z,101107.00
2018-09-19T18:25:08.393Z,101094.00
2018-09-19T18:31:11.793Z,101109.00
2018-09-19T18:37:15.284Z,101110.00
2018-09-19T18:43:18.684Z,101117.00
2018-09-19T18:49:22.160Z,101119.00
2018-09-19T18:55:26.327Z,101135.00
2018-09-19T19:01:30.810Z,101138.00
2018-09-19T19:07:34.197Z,101147.00
2018-09-19T19:13:37.734Z,101136.00
2018-09-19T19:19:41.508Z,101142.00
2018-09-19T19:25:44.996Z,101151.00
2018-09-19T19:31:48.746Z,101164.00
2018-09-19T19:37:52.346Z,101160.00
2018-09-19T19:43:56.638Z,101166.00
2018-09-19T19:50:00.128Z,101171.00
2018-09-19T19:56:03.773Z,101178.00
2018-09-19T20:02:07.377Z,101179.00
2018-09-19T20:08:11.168Z,101196.00
2018-09-19T20:14:14.900Z,101195.00
2018-09-19T20:20:18.603Z,101197.00
2018-09-19T20:26:22.269Z,101191.00
2018-09-19T20:32:26.024Z,101194.00
2018-09-19T20:38:29.777Z,101197.00
2018-09-19T20:44:33.538Z,101201.00
2018-09-19T20:50:37.430Z,101207.00
2018-09-19T20:56:41.054Z,101212.00
2018-09-19T21:02:44.681Z,101217.00
2018-09-19T21:08:48.291Z,101233.00
2018-09-19T21:14:52.415Z,101231.00
2018-09-19T21:20:55.968Z,101235.00
2018-09-19T21:27:00.048Z,101225.00
2018-09-19T21:33:03.825Z,101237.00
2018-09-19T21:39:10.097Z,101234.00
2018-09-19T21:45:13.616Z,101241.00
2018-09-19T21:51:17.099Z,101234.00
2018-09-19T21:57:20.528Z,101233.00
2018-09-19T22:03:24.495Z,101231.00
2018-09-19T22:09:28.132Z,101227.00
2018-09-19T22:15:31.565Z,101233.00
2018-09-19T22:21:34.996Z,101233.00
2018-09-19T22:27:38.605Z,101236.00
2018-09-19T22:33:41.919Z,101226.00
2018-09-19T22:39:45.487Z,101231.00
2018-09-19T22:45:48.896Z,101218.00
2018-09-19T22:51:52.370Z,101202.00
2018-09-19T22:57:55.834Z,101200.00
2018-09-19T23:03:59.354Z,101207.00
2018-09-19T23:10:02.819Z,101212.00
2018-09-19T23:16:06.206Z,101212.00
2018-09-19T23:22:09.676Z,101210.00
2018-09-19T23:28:13.111Z,101211.00
2018-09-19T23:34:17.912Z,101201.00
2018-09-19T23:40:21.976Z,101192.00
2018-09-19T23:46:25.448Z,101194.00
2018-09-19T23:52:28.834Z,101186.00
2018-09-19T23:58:32.431Z,101182.00
